sensor_id;sensor_type;location;lat;lon;timestamp;pressure;altitude;pressure_sealevel;temperature;humidity
78835;BME280;68187;42.682;23.352;2023-07-02T00:01:34;94527.78;;;18.47;76.72
78835;BME280;68187;42.682;23.352;2023-07-02T00:04:01;94539.41;;;18.51;76.84
78835;BME280;68187;42.682;23.352;2023-07-02T00:06:27;94535.16;;;18.50;76.94
78835;BME280;68187;42.682;23.352;2023-07-02T00:08:54;94537.84;;;18.50;77.14
78835;BME280;68187;42.682;23.352;2023-07-02T00:11:22;94502.72;;;18.31;76.76
78835;BME280;68187;42.682;23.352;2023-07-02T00:13:49;94509.00;;;18.35;77.34
78835;BME280;68187;42.682;23.352;2023-07-02T00:16:16;94526.22;;;18.46;77.10
78835;BME280;68187;42.682;23.352;2023-07-02T00:18:42;94503.41;;;18.28;77.41
78835;BME280;68187;42.682;23.352;2023-07-02T00:21:09;94519.16;;;18.41;77.26
78835;BME280;68187;42.682;23.352;2023-07-02T00:23:38;94519.63;;;18.43;76.99
78835;BME280;68187;42.682;23.352;2023-07-02T00:26:05;94511.00;;;18.38;77.35
78835;BME280;68187;42.682;23.352;2023-07-02T00:28:33;94519.03;;;18.38;77.02
78835;BME280;68187;42.682;23.352;2023-07-02T00:31:00;94521.44;;;18.31;77.50
78835;BME280;68187;42.682;23.352;2023-07-02T00:33:27;94514.47;;;18.18;77.50
78835;BME280;68187;42.682;23.352;2023-07-02T00:35:54;94529.22;;;18.24;77.70
78835;BME280;68187;42.682;23.352;2023-07-02T00:38:21;94521.97;;;18.24;78.15
78835;BME280;68187;42.682;23.352;2023-07-02T00:40:48;94515.16;;;18.15;78.00
78835;BME280;68187;42.682;23.352;2023-07-02T00:43:15;94545.19;;;18.32;77.78
78835;BME280;68187;42.682;23.352;2023-07-02T00:45:44;94544.59;;;18.27;78.05
78835;BME280;68187;42.682;23.352;2023-07-02T00:48:11;94513.94;;;18.04;78.48
78835;BME280;68187;42.682;23.352;2023-07-02T00:50:39;94538.22;;;18.19;78.10
78835;BME280;68187;42.682;23.352;2023-07-02T00:53:06;94516.88;;;18.11;78.03
78835;BME280;68187;42.682;23.352;2023-07-02T00:55:32;94538.53;;;18.18;78.14
78835;BME280;68187;42.682;23.352;2023-07-02T00:57:59;94536.97;;;18.17;78.31
78835;BME280;68187;42.682;23.352;2023-07-02T01:00:27;94540.09;;;18.19;78.67
78835;BME280;68187;42.682;23.352;2023-07-02T01:02:55;94539.91;;;18.24;78.71
78835;BME280;68187;42.682;23.352;2023-07-02T01:05:25;94508.09;;;18.10;78.70
78835;BME280;68187;42.682;23.352;2023-07-02T01:07:57;94538.59;;;18.30;78.46
78835;BME280;68187;42.682;23.352;2023-07-02T01:10:24;94543.63;;;18.31;77.99
78835;BME280;68187;42.682;23.352;2023-07-02T01:12:52;94529.78;;;18.29;77.81
78835;BME280;68187;42.682;23.352;2023-07-02T01:15:19;94532.63;;;18.33;77.65
78835;BME280;68187;42.682;23.352;2023-07-02T01:17:47;94538.59;;;18.30;78.06
78835;BME280;68187;42.682;23.352;2023-07-02T01:20:15;94542.38;;;18.29;77.36
78835;BME280;68187;42.682;23.352;2023-07-02T01:22:42;94509.00;;;18.14;77.71
78835;BME280;68187;42.682;23.352;2023-07-02T01:25:09;94534.34;;;18.29;77.33
78835;BME280;68187;42.682;23.352;2023-07-02T01:27:36;94547.00;;;18.40;76.90
78835;BME280;68187;42.682;23.352;2023-07-02T01:30:03;94522.69;;;18.33;77.06
78835;BME280;68187;42.682;23.352;2023-07-02T01:32:30;94499.22;;;18.18;76.61
78835;BME280;68187;42.682;23.352;2023-07-02T01:34:56;94515.69;;;18.41;76.86
78835;BME280;68187;42.682;23.352;2023-07-02T01:37:25;94483.69;;;18.32;76.25
78835;BME280;68187;42.682;23.352;2023-07-02T01:39:52;94509.50;;;18.49;76.04
78835;BME280;68187;42.682;23.352;2023-07-02T01:42:19;94519.38;;;18.57;75.12
78835;BME280;68187;42.682;23.352;2023-07-02T01:44:47;94508.03;;;18.60;75.10
78835;BME280;68187;42.682;23.352;2023-07-02T01:47:15;94509.47;;;18.58;75.07
78835;BME280;68187;42.682;23.352;2023-07-02T01:49:42;94491.28;;;18.42;74.92
78835;BME280;68187;42.682;23.352;2023-07-02T01:52:09;94511.09;;;18.50;75.40
78835;BME280;68187;42.682;23.352;2023-07-02T01:54:37;94516.56;;;18.53;75.57
78835;BME280;68187;42.682;23.352;2023-07-02T01:57:04;94500.59;;;18.45;75.98
78835;BME280;68187;42.682;23.352;2023-07-02T01:59:31;94504.34;;;18.44;76.16
78835;BME280;68187;42.682;23.352;2023-07-02T02:01:57;94493.41;;;18.37;76.36
78835;BME280;68187;42.682;23.352;2023-07-02T02:04:24;94491.72;;;18.32;77.13
78835;BME280;68187;42.682;23.352;2023-07-02T02:06:51;94505.88;;;18.33;77.02
78835;BME280;68187;42.682;23.352;2023-07-02T02:09:18;94485.97;;;18.22;77.10
78835;BME280;68187;42.682;23.352;2023-07-02T02:11:48;94477.44;;;18.28;78.16
78835;BME280;68187;42.682;23.352;2023-07-02T02:14:15;94496.22;;;18.20;78.74
78835;BME280;68187;42.682;23.352;2023-07-02T02:16:42;94482.81;;;18.08;78.43
78835;BME280;68187;42.682;23.352;2023-07-02T02:19:11;94487.22;;;18.04;77.87
78835;BME280;68187;42.682;23.352;2023-07-02T02:21:38;94505.63;;;18.05;78.39
78835;BME280;68187;42.682;23.352;2023-07-02T02:24:05;94492.38;;;17.88;78.58
78835;BME280;68187;42.682;23.352;2023-07-02T02:26:32;94482.22;;;17.81;78.82
78835;BME280;68187;42.682;23.352;2023-07-02T02:29:01;94493.16;;;17.89;80.01
78835;BME280;68187;42.682;23.352;2023-07-02T02:31:28;94496.16;;;17.87;79.95
78835;BME280;68187;42.682;23.352;2023-07-02T02:33:55;94483.44;;;17.84;80.03
78835;BME280;68187;42.682;23.352;2023-07-02T02:36:21;94457.84;;;17.62;79.81
78835;BME280;68187;42.682;23.352;2023-07-02T02:38:48;94476.16;;;17.72;80.23
78835;BME280;68187;42.682;23.352;2023-07-02T02:41:15;94486.75;;;17.81;80.22
78835;BME280;68187;42.682;23.352;2023-07-02T02:43:42;94491.00;;;17.82;80.28
78835;BME280;68187;42.682;23.352;2023-07-02T02:46:11;94476.06;;;17.81;79.84
78835;BME280;68187;42.682;23.352;2023-07-02T02:48:38;94475.31;;;17.80;79.71
78835;BME280;68187;42.682;23.352;2023-07-02T02:51:05;94480.22;;;17.78;79.86
78835;BME280;68187;42.682;23.352;2023-07-02T02:53:31;94476.28;;;17.76;79.39
78835;BME280;68187;42.682;23.352;2023-07-02T02:55:58;94490.16;;;17.69;80.06
78835;BME280;68187;42.682;23.352;2023-07-02T02:58:25;94469.22;;;17.51;80.73
78835;BME280;68187;42.682;23.352;2023-07-02T03:00:53;94492.97;;;17.73;80.02
78835;BME280;68187;42.682;23.352;2023-07-02T03:03:22;94449.56;;;17.47;79.28
78835;BME280;68187;42.682;23.352;2023-07-02T03:05:49;94486.19;;;17.75;80.06
78835;BME280;68187;42.682;23.352;2023-07-02T03:08:16;94486.44;;;17.62;80.29
78835;BME280;68187;42.682;23.352;2023-07-02T03:10:43;94504.00;;;17.63;80.60
78835;BME280;68187;42.682;23.352;2023-07-02T03:13:09;94491.44;;;17.63;80.27
78835;BME280;68187;42.682;23.352;2023-07-02T03:15:36;94488.78;;;17.63;81.16
78835;BME280;68187;42.682;23.352;2023-07-02T03:18:03;94481.56;;;17.64;81.60
78835;BME280;68187;42.682;23.352;2023-07-02T03:20:31;94482.63;;;17.63;81.76
78835;BME280;68187;42.682;23.352;2023-07-02T03:22:58;94464.44;;;17.65;81.95
78835;BME280;68187;42.682;23.352;2023-07-02T03:25:25;94469.56;;;17.70;81.28
78835;BME280;68187;42.682;23.352;2023-07-02T03:27:51;94471.97;;;17.63;81.56
78835;BME280;68187;42.682;23.352;2023-07-02T03:30:18;94491.91;;;17.65;81.64
78835;BME280;68187;42.682;23.352;2023-07-02T03:32:45;94510.50;;;17.83;81.35
78835;BME280;68187;42.682;23.352;2023-07-02T03:35:11;94519.09;;;17.88;81.13
78835;BME280;68187;42.682;23.352;2023-07-02T03:37:39;94518.91;;;17.93;80.59
78835;BME280;68187;42.682;23.352;2023-07-02T03:40:09;94493.75;;;17.73;79.73
78835;BME280;68187;42.682;23.352;2023-07-02T03:42:36;94512.78;;;17.93;80.45
78835;BME280;68187;42.682;23.352;2023-07-02T03:45:03;94513.09;;;17.91;80.31
78835;BME280;68187;42.682;23.352;2023-07-02T03:47:30;94492.50;;;17.71;80.63
78835;BME280;68187;42.682;23.352;2023-07-02T03:49:56;94497.72;;;17.88;80.54
78835;BME280;68187;42.682;23.352;2023-07-02T03:52:23;94487.38;;;17.87;80.58
78835;BME280;68187;42.682;23.352;2023-07-02T03:54:51;94504.13;;;17.96;80.47
78835;BME280;68187;42.682;23.352;2023-07-02T03:57:18;94506.44;;;17.97;79.60
78835;BME280;68187;42.682;23.352;2023-07-02T03:59:45;94494.78;;;18.02;80.04
78835;BME280;68187;42.682;23.352;2023-07-02T04:02:11;94486.19;;;17.96;80.65
78835;BME280;68187;42.682;23.352;2023-07-02T04:04:38;94510.44;;;18.12;80.81
78835;BME280;68187;42.682;23.352;2023-07-02T04:07:05;94497.06;;;18.12;81.14
78835;BME280;68187;42.682;23.352;2023-07-02T04:09:32;94499.81;;;18.03;80.69
78835;BME280;68187;42.682;23.352;2023-07-02T04:12:00;94495.13;;;18.00;80.58
78835;BME280;68187;42.682;23.352;2023-07-02T04:14:27;94516.88;;;18.11;80.63
78835;BME280;68187;42.682;23.352;2023-07-02T04:16:54;94506.53;;;18.09;80.77
78835;BME280;68187;42.682;23.352;2023-07-02T04:19:20;94509.41;;;18.04;80.72
78835;BME280;68187;42.682;23.352;2023-07-02T04:21:47;94537.16;;;18.12;81.30
78835;BME280;68187;42.682;23.352;2023-07-02T04:24:14;94535.31;;;18.04;81.19
78835;BME280;68187;42.682;23.352;2023-07-02T04:26:41;94492.84;;;17.69;81.46
78835;BME280;68187;42.682;23.352;2023-07-02T04:29:09;94529.47;;;17.90;81.24
78835;BME280;68187;42.682;23.352;2023-07-02T04:31:36;94541.34;;;18.01;80.66
78835;BME280;68187;42.682;23.352;2023-07-02T04:34:03;94544.28;;;18.08;80.16
78835;BME280;68187;42.682;23.352;2023-07-02T04:36:31;94543.50;;;18.07;80.17
78835;BME280;68187;42.682;23.352;2023-07-02T04:38:58;94533.06;;;17.94;80.54
78835;BME280;68187;42.682;23.352;2023-07-02T04:41:25;94536.25;;;17.87;80.73
78835;BME280;68187;42.682;23.352;2023-07-02T04:43:52;94549.41;;;17.92;80.93
78835;BME280;68187;42.682;23.352;2023-07-02T04:46:20;94569.50;;;17.98;80.63
78835;BME280;68187;42.682;23.352;2023-07-02T04:48:47;94557.88;;;17.94;80.80
78835;BME280;68187;42.682;23.352;2023-07-02T04:51:14;94570.06;;;18.04;80.91
78835;BME280;68187;42.682;23.352;2023-07-02T04:53:40;94550.19;;;17.93;80.20
78835;BME280;68187;42.682;23.352;2023-07-02T04:56:07;94574.25;;;18.13;80.63
78835;BME280;68187;42.682;23.352;2023-07-02T04:58:34;94559.19;;;18.09;80.46
78835;BME280;68187;42.682;23.352;2023-07-02T05:01:01;94559.38;;;18.04;81.02
78835;BME280;68187;42.682;23.352;2023-07-02T05:03:29;94579.53;;;18.22;80.97
78835;BME280;68187;42.682;23.352;2023-07-02T05:05:56;94578.88;;;18.25;80.95
78835;BME280;68187;42.682;23.352;2023-07-02T05:08:22;94561.31;;;18.24;79.61
78835;BME280;68187;42.682;23.352;2023-07-02T05:10:49;94581.38;;;18.30;79.23
78835;BME280;68187;42.682;23.352;2023-07-02T05:13:16;94586.09;;;18.33;79.45
78835;BME280;68187;42.682;23.352;2023-07-02T05:15:43;94587.28;;;18.35;80.12
78835;BME280;68187;42.682;23.352;2023-07-02T05:18:10;94577.84;;;18.38;79.47
78835;BME280;68187;42.682;23.352;2023-07-02T05:20:38;94581.13;;;18.43;78.96
78835;BME280;68187;42.682;23.352;2023-07-02T05:23:04;94592.75;;;18.47;78.92
78835;BME280;68187;42.682;23.352;2023-07-02T05:25:31;94579.22;;;18.44;79.45
78835;BME280;68187;42.682;23.352;2023-07-02T05:27:59;94590.00;;;18.56;79.23
78835;BME280;68187;42.682;23.352;2023-07-02T05:30:25;94588.03;;;18.65;78.22
78835;BME280;68187;42.682;23.352;2023-07-02T05:32:52;94583.94;;;18.68;78.14
78835;BME280;68187;42.682;23.352;2023-07-02T05:35:19;94575.34;;;18.62;78.54
78835;BME280;68187;42.682;23.352;2023-07-02T05:37:47;94584.06;;;18.71;78.30
78835;BME280;68187;42.682;23.352;2023-07-02T05:40:14;94575.44;;;18.66;78.04
78835;BME280;68187;42.682;23.352;2023-07-02T05:42:40;94586.06;;;18.74;77.57
78835;BME280;68187;42.682;23.352;2023-07-02T05:45:08;94582.03;;;18.68;77.14
78835;BME280;68187;42.682;23.352;2023-07-02T05:47:35;94575.34;;;18.62;77.59
78835;BME280;68187;42.682;23.352;2023-07-02T05:50:02;94599.69;;;18.81;76.87
78835;BME280;68187;42.682;23.352;2023-07-02T05:52:29;94600.81;;;18.80;76.44
78835;BME280;68187;42.682;23.352;2023-07-02T05:54:57;94573.56;;;18.66;76.13
78835;BME280;68187;42.682;23.352;2023-07-02T05:57:24;94602.50;;;18.85;76.49
78835;BME280;68187;42.682;23.352;2023-07-02T05:59:51;94576.16;;;18.75;76.79
78835;BME280;68187;42.682;23.352;2023-07-02T06:02:17;94597.06;;;18.93;75.53
78835;BME280;68187;42.682;23.352;2023-07-02T06:04:44;94582.13;;;18.92;74.71
78835;BME280;68187;42.682;23.352;2023-07-02T06:07:11;94581.91;;;18.97;73.62
78835;BME280;68187;42.682;23.352;2023-07-02T06:09:37;94585.75;;;19.08;72.77
78835;BME280;68187;42.682;23.352;2023-07-02T06:12:06;94574.59;;;19.06;72.66
78835;BME280;68187;42.682;23.352;2023-07-02T06:14:33;94553.91;;;18.95;73.38
78835;BME280;68187;42.682;23.352;2023-07-02T06:17:00;94590.69;;;19.18;73.43
78835;BME280;68187;42.682;23.352;2023-07-02T06:19:30;94570.50;;;19.21;72.60
78835;BME280;68187;42.682;23.352;2023-07-02T06:21:57;94561.25;;;19.18;73.21
78835;BME280;68187;42.682;23.352;2023-07-02T06:24:24;94560.34;;;19.27;73.38
78835;BME280;68187;42.682;23.352;2023-07-02T06:26:51;94550.19;;;19.20;73.42
78835;BME280;68187;42.682;23.352;2023-07-02T06:29:19;94561.06;;;19.36;73.85
78835;BME280;68187;42.682;23.352;2023-07-02T06:31:45;94562.28;;;19.38;73.37
78835;BME280;68187;42.682;23.352;2023-07-02T06:34:12;94554.13;;;19.35;73.42
78835;BME280;68187;42.682;23.352;2023-07-02T06:36:39;94556.16;;;19.50;72.56
78835;BME280;68187;42.682;23.352;2023-07-02T06:39:06;94557.50;;;19.44;72.13
78835;BME280;68187;42.682;23.352;2023-07-02T06:41:34;94570.00;;;19.52;72.39
78835;BME280;68187;42.682;23.352;2023-07-02T06:44:01;94562.41;;;19.54;73.23
78835;BME280;68187;42.682;23.352;2023-07-02T06:46:29;94568.69;;;19.70;72.61
78835;BME280;68187;42.682;23.352;2023-07-02T06:48:56;94568.47;;;19.75;72.22
78835;BME280;68187;42.682;23.352;2023-07-02T06:51:23;94568.47;;;19.87;71.85
78835;BME280;68187;42.682;23.352;2023-07-02T06:53:51;94554.50;;;19.81;70.87
78835;BME280;68187;42.682;23.352;2023-07-02T06:56:18;94545.44;;;19.86;71.03
78835;BME280;68187;42.682;23.352;2023-07-02T06:58:45;94569.78;;;19.93;71.13
78835;BME280;68187;42.682;23.352;2023-07-02T07:01:11;94570.59;;;19.93;71.23
78835;BME280;68187;42.682;23.352;2023-07-02T07:03:39;94569.91;;;19.97;71.19
78835;BME280;68187;42.682;23.352;2023-07-02T07:06:06;94560.88;;;19.89;70.33
78835;BME280;68187;42.682;23.352;2023-07-02T07:08:33;94576.81;;;19.98;69.68
78835;BME280;68187;42.682;23.352;2023-07-02T07:11:03;94573.81;;;19.99;70.30
78835;BME280;68187;42.682;23.352;2023-07-02T07:13:29;94576.03;;;19.97;70.33
78835;BME280;68187;42.682;23.352;2023-07-02T07:15:56;94571.25;;;20.03;70.03
78835;BME280;68187;42.682;23.352;2023-07-02T07:18:23;94539.66;;;19.84;70.28
78835;BME280;68187;42.682;23.352;2023-07-02T07:20:51;94569.56;;;20.10;70.14
78835;BME280;68187;42.682;23.352;2023-07-02T07:23:19;94559.50;;;20.07;69.25
78835;BME280;68187;42.682;23.352;2023-07-02T07:25:45;94563.50;;;20.13;69.17
78835;BME280;68187;42.682;23.352;2023-07-02T07:28:12;94551.91;;;20.09;69.93
78835;BME280;68187;42.682;23.352;2023-07-02T07:30:41;94565.06;;;20.26;69.09
78835;BME280;68187;42.682;23.352;2023-07-02T07:33:08;94566.22;;;20.25;67.97
78835;BME280;68187;42.682;23.352;2023-07-02T07:35:35;94556.81;;;20.19;68.50
78835;BME280;68187;42.682;23.352;2023-07-02T07:38:03;94552.13;;;20.16;69.01
78835;BME280;68187;42.682;23.352;2023-07-02T07:40:29;94560.06;;;20.25;68.85
78835;BME280;68187;42.682;23.352;2023-07-02T07:42:56;94560.19;;;20.28;69.19
78835;BME280;68187;42.682;23.352;2023-07-02T07:45:23;94557.50;;;20.28;68.80
78835;BME280;68187;42.682;23.352;2023-07-02T07:47:49;94535.03;;;20.09;67.90
78835;BME280;68187;42.682;23.352;2023-07-02T07:50:16;94556.34;;;20.17;67.85
78835;BME280;68187;42.682;23.352;2023-07-02T07:52:43;94538.16;;;20.11;68.22
78835;BME280;68187;42.682;23.352;2023-07-02T07:55:11;94541.84;;;20.18;68.49
78835;BME280;68187;42.682;23.352;2023-07-02T07:57:38;94571.22;;;20.39;68.58
78835;BME280;68187;42.682;23.352;2023-07-02T08:00:06;94563.94;;;20.39;68.61
78835;BME280;68187;42.682;23.352;2023-07-02T08:02:34;94569.25;;;20.51;68.33
78835;BME280;68187;42.682;23.352;2023-07-02T08:05:01;94574.16;;;20.61;68.21
78835;BME280;68187;42.682;23.352;2023-07-02T08:07:28;94570.31;;;20.75;68.27
78835;BME280;68187;42.682;23.352;2023-07-02T08:09:54;94574.75;;;20.83;67.73
78835;BME280;68187;42.682;23.352;2023-07-02T08:12:22;94581.34;;;20.85;67.76
78835;BME280;68187;42.682;23.352;2023-07-02T08:14:49;94579.09;;;20.87;67.65
78835;BME280;68187;42.682;23.352;2023-07-02T08:17:16;94578.31;;;20.87;67.50
78835;BME280;68187;42.682;23.352;2023-07-02T08:19:43;94567.81;;;20.82;67.32
78835;BME280;68187;42.682;23.352;2023-07-02T08:22:09;94571.81;;;20.88;66.40
78835;BME280;68187;42.682;23.352;2023-07-02T08:24:36;94566.78;;;20.86;65.93
78835;BME280;68187;42.682;23.352;2023-07-02T08:27:03;94570.63;;;20.85;65.59
78835;BME280;68187;42.682;23.352;2023-07-02T08:29:32;94569.91;;;20.88;66.58
78835;BME280;68187;42.682;23.352;2023-07-02T08:31:59;94559.72;;;20.94;66.48
78835;BME280;68187;42.682;23.352;2023-07-02T08:34:25;94569.06;;;21.00;66.00
78835;BME280;68187;42.682;23.352;2023-07-02T08:36:52;94557.66;;;21.03;66.24
78835;BME280;68187;42.682;23.352;2023-07-02T08:39:19;94540.97;;;21.09;65.22
78835;BME280;68187;42.682;23.352;2023-07-02T08:41:46;94550.03;;;21.33;64.97
78835;BME280;68187;42.682;23.352;2023-07-02T08:44:14;94554.25;;;21.49;65.09
78835;BME280;68187;42.682;23.352;2023-07-02T08:46:42;94557.22;;;21.60;63.16
78835;BME280;68187;42.682;23.352;2023-07-02T08:49:10;94561.13;;;21.62;63.83
78835;BME280;68187;42.682;23.352;2023-07-02T08:51:36;94558.94;;;21.68;63.39
78835;BME280;68187;42.682;23.352;2023-07-02T08:54:03;94531.88;;;21.61;64.62
78835;BME280;68187;42.682;23.352;2023-07-02T08:56:30;94556.69;;;21.85;64.36
78835;BME280;68187;42.682;23.352;2023-07-02T08:58:57;94537.09;;;21.85;63.87
78835;BME280;68187;42.682;23.352;2023-07-02T09:01:24;94539.38;;;22.18;61.72
78835;BME280;68187;42.682;23.352;2023-07-02T09:03:52;94546.91;;;22.47;62.82
78835;BME280;68187;42.682;23.352;2023-07-02T09:06:18;94544.41;;;22.73;61.13
78835;BME280;68187;42.682;23.352;2023-07-02T09:08:45;94551.06;;;22.79;60.33
78835;BME280;68187;42.682;23.352;2023-07-02T09:11:13;94532.72;;;22.65;59.74
78835;BME280;68187;42.682;23.352;2023-07-02T09:13:44;94545.09;;;22.70;60.04
78835;BME280;68187;42.682;23.352;2023-07-02T09:16:21;94549.03;;;22.57;59.13
78835;BME280;68187;42.682;23.352;2023-07-02T09:19:00;94540.41;;;22.48;59.41
78835;BME280;68187;42.682;23.352;2023-07-02T09:21:27;94535.28;;;22.43;58.50
78835;BME280;68187;42.682;23.352;2023-07-02T09:23:55;94549.53;;;22.43;59.67
78835;BME280;68187;42.682;23.352;2023-07-02T09:26:22;94546.16;;;22.46;59.45
78835;BME280;68187;42.682;23.352;2023-07-02T09:28:49;94531.69;;;22.54;59.07
78835;BME280;68187;42.682;23.352;2023-07-02T09:31:16;94535.75;;;22.64;59.32
78835;BME280;68187;42.682;23.352;2023-07-02T09:33:43;94526.91;;;22.63;58.89
78835;BME280;68187;42.682;23.352;2023-07-02T09:36:11;94529.88;;;22.78;58.74
78835;BME280;68187;42.682;23.352;2023-07-02T09:38:39;94537.94;;;22.78;58.60
78835;BME280;68187;42.682;23.352;2023-07-02T09:41:07;94536.81;;;22.79;59.15
78835;BME280;68187;42.682;23.352;2023-07-02T09:43:34;94505.50;;;22.70;59.68
78835;BME280;68187;42.682;23.352;2023-07-02T09:46:01;94532.47;;;22.93;58.72
78835;BME280;68187;42.682;23.352;2023-07-02T09:48:31;94528.78;;;23.01;59.25
78835;BME280;68187;42.682;23.352;2023-07-02T09:51:01;94526.56;;;23.07;59.42
78835;BME280;68187;42.682;23.352;2023-07-02T09:53:31;94527.28;;;23.04;59.09
78835;BME280;68187;42.682;23.352;2023-07-02T09:55:59;94529.91;;;23.00;58.47
78835;BME280;68187;42.682;23.352;2023-07-02T09:58:26;94534.47;;;22.96;59.04
78835;BME280;68187;42.682;23.352;2023-07-02T10:00:52;94525.25;;;22.97;60.61
78835;BME280;68187;42.682;23.352;2023-07-02T10:03:28;94524.53;;;23.00;61.37
78835;BME280;68187;42.682;23.352;2023-07-02T10:06:03;94522.97;;;22.99;59.24
78835;BME280;68187;42.682;23.352;2023-07-02T10:08:32;94528.78;;;23.01;59.12
78835;BME280;68187;42.682;23.352;2023-07-02T10:11:09;94520.41;;;23.06;60.84
78835;BME280;68187;42.682;23.352;2023-07-02T10:13:35;94517.41;;;23.11;60.36
78835;BME280;68187;42.682;23.352;2023-07-02T10:16:02;94502.50;;;23.17;60.45
78835;BME280;68187;42.682;23.352;2023-07-02T10:18:29;94505.72;;;23.46;60.49
78835;BME280;68187;42.682;23.352;2023-07-02T10:20:56;94504.00;;;23.83;59.45
78835;BME280;68187;42.682;23.352;2023-07-02T10:23:34;94466.50;;;24.00;57.54
78835;BME280;68187;42.682;23.352;2023-07-02T10:26:10;94486.31;;;24.41;55.19
78835;BME280;68187;42.682;23.352;2023-07-02T10:28:37;94487.41;;;24.66;56.32
78835;BME280;68187;42.682;23.352;2023-07-02T10:31:04;94474.88;;;24.85;54.48
78835;BME280;68187;42.682;23.352;2023-07-02T10:33:31;94473.94;;;25.07;56.94
78835;BME280;68187;42.682;23.352;2023-07-02T10:35:58;94453.66;;;25.23;54.84
78835;BME280;68187;42.682;23.352;2023-07-02T10:38:25;94451.09;;;25.41;52.92
78835;BME280;68187;42.682;23.352;2023-07-02T10:40:57;94460.19;;;25.66;50.86
78835;BME280;68187;42.682;23.352;2023-07-02T10:43:25;94452.47;;;25.72;50.91
78835;BME280;68187;42.682;23.352;2023-07-02T10:45:53;94454.44;;;25.75;49.71
78835;BME280;68187;42.682;23.352;2023-07-02T10:48:20;94473.19;;;26.04;51.53
78835;BME280;68187;42.682;23.352;2023-07-02T10:50:46;94475.22;;;26.18;51.55
78835;BME280;68187;42.682;23.352;2023-07-02T10:53:17;94482.66;;;26.32;50.48
78835;BME280;68187;42.682;23.352;2023-07-02T10:55:44;94468.78;;;26.44;48.99
78835;BME280;68187;42.682;23.352;2023-07-02T10:58:12;94469.56;;;26.48;48.32
78835;BME280;68187;42.682;23.352;2023-07-02T11:00:44;94466.50;;;26.53;47.55
78835;BME280;68187;42.682;23.352;2023-07-02T11:03:17;94449.81;;;26.40;45.75
78835;BME280;68187;42.682;23.352;2023-07-02T11:05:44;94454.50;;;26.54;48.39
78835;BME280;68187;42.682;23.352;2023-07-02T11:08:11;94449.53;;;26.66;48.63
78835;BME280;68187;42.682;23.352;2023-07-02T11:10:38;94440.31;;;26.85;48.23
78835;BME280;68187;42.682;23.352;2023-07-02T11:13:16;94440.31;;;26.96;45.05
78835;BME280;68187;42.682;23.352;2023-07-02T11:15:43;94447.31;;;27.07;44.87
78835;BME280;68187;42.682;23.352;2023-07-02T11:18:12;94444.22;;;27.05;46.25
78835;BME280;68187;42.682;23.352;2023-07-02T11:20:39;94432.97;;;27.07;43.25
78835;BME280;68187;42.682;23.352;2023-07-02T11:23:16;94452.75;;;27.14;43.73
78835;BME280;68187;42.682;23.352;2023-07-02T11:25:54;94432.59;;;27.05;42.27
78835;BME280;68187;42.682;23.352;2023-07-02T11:28:22;94456.25;;;27.18;44.76
78835;BME280;68187;42.682;23.352;2023-07-02T11:30:49;94450.44;;;27.27;43.22
78835;BME280;68187;42.682;23.352;2023-07-02T11:33:15;94459.78;;;27.36;40.71
78835;BME280;68187;42.682;23.352;2023-07-02T11:35:43;94450.41;;;27.09;42.65
78835;BME280;68187;42.682;23.352;2023-07-02T11:38:09;94470.81;;;26.64;45.39
78835;BME280;68187;42.682;23.352;2023-07-02T11:40:36;94466.53;;;25.91;47.94
78835;BME280;68187;42.682;23.352;2023-07-02T11:43:03;94472.72;;;25.41;50.13
78835;BME280;68187;42.682;23.352;2023-07-02T11:45:32;94471.19;;;25.00;51.67
78835;BME280;68187;42.682;23.352;2023-07-02T11:47:59;94473.25;;;24.76;52.24
78835;BME280;68187;42.682;23.352;2023-07-02T11:50:26;94473.81;;;24.93;52.04
78835;BME280;68187;42.682;23.352;2023-07-02T11:52:53;94448.50;;;25.08;50.99
78835;BME280;68187;42.682;23.352;2023-07-02T11:55:19;94456.03;;;25.35;50.20
78835;BME280;68187;42.682;23.352;2023-07-02T11:57:46;94457.38;;;25.52;50.24
78835;BME280;68187;42.682;23.352;2023-07-02T12:00:14;94449.81;;;25.79;49.61
78835;BME280;68187;42.682;23.352;2023-07-02T12:02:43;94468.53;;;26.01;49.75
78835;BME280;68187;42.682;23.352;2023-07-02T12:05:09;94437.63;;;26.02;48.35
78835;BME280;68187;42.682;23.352;2023-07-02T12:07:36;94451.28;;;26.24;46.59
78835;BME280;68187;42.682;23.352;2023-07-02T12:10:03;94471.84;;;26.39;44.10
78835;BME280;68187;42.682;23.352;2023-07-02T12:12:30;94471.38;;;26.26;41.92
78835;BME280;68187;42.682;23.352;2023-07-02T12:14:57;94484.75;;;25.98;43.17
78835;BME280;68187;42.682;23.352;2023-07-02T12:17:24;94481.50;;;25.71;45.47
78835;BME280;68187;42.682;23.352;2023-07-02T12:19:52;94477.34;;;25.40;45.64
78835;BME280;68187;42.682;23.352;2023-07-02T12:22:18;94493.34;;;25.16;46.98
78835;BME280;68187;42.682;23.352;2023-07-02T12:24:47;94494.28;;;24.94;48.54
78835;BME280;68187;42.682;23.352;2023-07-02T12:27:15;94492.09;;;24.73;49.63
78835;BME280;68187;42.682;23.352;2023-07-02T12:29:42;94485.41;;;24.30;51.79
78835;BME280;68187;42.682;23.352;2023-07-02T12:32:09;94485.53;;;24.11;54.47
78835;BME280;68187;42.682;23.352;2023-07-02T12:34:35;94492.50;;;24.12;54.51
78835;BME280;68187;42.682;23.352;2023-07-02T12:37:04;94473.25;;;23.87;56.13
78835;BME280;68187;42.682;23.352;2023-07-02T12:39:31;94497.53;;;23.87;57.47
78835;BME280;68187;42.682;23.352;2023-07-02T12:41:58;94506.25;;;23.81;59.32
78835;BME280;68187;42.682;23.352;2023-07-02T12:44:24;94494.44;;;23.63;59.73
78835;BME280;68187;42.682;23.352;2023-07-02T12:46:51;94489.03;;;23.63;60.10
78835;BME280;68187;42.682;23.352;2023-07-02T12:49:18;94494.19;;;23.71;60.68
78835;BME280;68187;42.682;23.352;2023-07-02T12:51:45;94501.63;;;23.78;61.18